Aranda — OIRY — position and weather

sailwx.info

Track history (hours):
 
Tides and Currents Weather Stations Pressure Air Temp Water Temp Dewpoint Dewpoint Depression Visibility Wind Speed Wind Dir Waves Ship Positions

Oceanographic research ship Aranda (Finland)

Detailed information on ship capabilities available from University of Delaware's Ocean Information Center and ARCUS's ALIAS (Arctic Logistics Information and Support) project.

Last reported at 2017-Jul-27 06:23 UTC. Time now 2017-Jul-28 06:29 UTC.
Position N 61°08' E 021°27'.

Length 60 m; draft 4.3 m.

Type: Other ship. MMSI: 230145000.

Date/timePositionNaut miles runAvg speedWind from/ knotsBaromVisibWave heightAir tempDewpointWater temp
2017-Jul-27 06:23N 61°08' E 021°27'0 0.0
2017-Jul-27 05:59N 61°08' E 021°27'0 0.0
2017-Jul-27 05:29N 61°08' E 021°27'0 0.0
2017-Jul-27 04:59N 61°08' E 021°27'0 0.0
2017-Jul-27 04:30N 61°08' E 021°27'0 0.4
2017-Jul-27 04:01N 61°07' E 021°27'2 3.0
2017-Jul-27 03:30N 61°07' E 021°25'0 0.0
2017-Jul-27 03:00N 61°06' E 021°25'0 0.0
2017-Jul-27 02:30N 61°06' E 021°25'0 0.0
2017-Jul-27 02:00N 61°06' E 021°25'0 0.0
2017-Jul-27 01:30N 61°06' E 021°25'1 2.7
2017-Jul-27 01:00N 61°06' E 021°22'3 6.6
2017-Jul-27 00:30N 61°06' E 021°15'2 4.7
2017-Jul-27 00:00N 61°06' E 021°10'3 5.9
2017-Jul-26 23:30N 61°03' E 021°08'3 6.0
2017-Jul-26 23:00N 61°00' E 021°10'3 5.8
2017-Jul-26 22:30N 60°57' E 021°09'3 5.9
2017-Jul-26 22:00N 60°54' E 021°09'3 6.3
2017-Jul-26 21:30N 60°51' E 021°07'3 6.0
2017-Jul-26 21:00N 60°48' E 021°07'3 6.2
2017-Jul-26 20:30N 60°46' E 021°11'2 3.1
2017-Jul-26 20:00N 60°47' E 021°13'3 5.7
2017-Jul-26 19:30N 60°47' E 021°19'0 0.0
2017-Jul-26 19:01N 60°47' E 021°19'1 1.1
2017-Jul-26 18:30N 60°47' E 021°18'5 9.8
2017-Jul-26 18:00N 60°44' E 021°10'510.0
2017-Jul-26 17:30N 60°39' E 021°11'5 9.9
2017-Jul-26 17:00N 60°35' E 021°16'5 9.6
2017-Jul-26 16:30N 60°31' E 021°23'5 9.4
2017-Jul-26 16:00N 60°27' E 021°29'611.7
2017-Jul-26 15:30N 60°23' E 021°35'611.2
2017-Jul-26 15:00N 60°18' E 021°43'10 9.8
2017-Jul-26 14:00N 60°19' E 022°03'611.7
2017-Jul-26 13:30N 60°25' E 022°05'2 4.6
2017-Jul-26 13:00N 60°27' E 022°03'1 2.6
2017-Jul-26 12:30N 60°26' E 022°05'611.5
2017-Jul-26 12:00N 60°20' E 022°04'611.3
2017-Jul-26 11:30N 60°16' E 021°57'612.1
2017-Jul-26 11:00N 60°14' E 021°46'510.2
2017-Jul-26 10:30N 60°09' E 021°42'612.0
2017-Jul-26 10:01N 60°03' E 021°41'611.9
2017-Jul-26 09:31N 59°57' E 021°40'612.3
2017-Jul-26 09:00N 59°53' E 021°31'612.1
2017-Jul-26 08:30N 59°49' E 021°22'4 7.7
2017-Jul-26 08:01N 59°46' E 021°22'0 0.1
2017-Jul-26 07:31N 59°46' E 021°22'0 0.0
2017-Jul-26 07:00N 59°46' E 021°22'0 1.0
2017-Jul-26 06:31N 59°46' E 021°21'510.1
2017-Jul-26 06:01N 59°51' E 021°25'612.7
2017-Jul-26 05:30N 59°52' E 021°38'612.4
2017-Jul-26 05:00N 59°52' E 021°50'612.6
2017-Jul-26 04:31N 59°53' E 022°02'612.7
2017-Jul-26 04:00N 59°53' E 022°15'612.3
2017-Jul-26 03:30N 59°53' E 022°27'611.9
2017-Jul-26 03:00N 59°55' E 022°39'612.7
2017-Jul-26 02:30N 59°52' E 022°50'4 8.4
2017-Jul-26 02:00N 59°48' E 022°53'2 3.1
2017-Jul-26 01:30N 59°49' E 022°56'1 1.6
2017-Jul-26 01:00N 59°48' E 022°57'713.0
2017-Jul-26 00:30N 59°48' E 023°10'4 8.8
2017-Jul-26 00:00N 59°50' E 023°18'0 0.0
2017-Jul-25 23:30N 59°50' E 023°18'0 0.0
2017-Jul-25 23:00N 59°50' E 023°18'0 0.1
2017-Jul-25 22:30N 59°50' E 023°18'0 0.1
2017-Jul-25 22:00N 59°50' E 023°18'0 0.0
2017-Jul-25 21:30N 59°50' E 023°18'3 6.6
2017-Jul-25 21:00N 59°46' E 023°16'5 9.3
2017-Jul-25 20:30N 59°42' E 023°20'713.1
2017-Jul-25 20:00N 59°43' E 023°32'612.5
2017-Jul-25 19:30N 59°45' E 023°44'612.4
2017-Jul-25 19:00N 59°49' E 023°54'2 3.4
2017-Jul-25 18:31N 59°50' E 023°57'2 4.7
2017-Jul-25 18:00N 59°50' E 024°01'1 2.8
2017-Jul-25 17:30N 59°50' E 024°04'2 4.4
2017-Jul-25 17:00N 59°50' E 024°09'612.7
2017-Jul-25 16:30N 59°51' E 024°21'612.5
2017-Jul-25 16:00N 59°52' E 024°33'612.5
2017-Jul-25 15:30N 59°54' E 024°45'612.6
2017-Jul-25 15:00N 59°56' E 024°57'1212.1
2017-Jul-25 14:00N 60°03' E 025°16'612.2
2017-Jul-25 13:30N 60°08' E 025°22'611.8
2017-Jul-25 13:00N 60°13' E 025°29'510.5
2017-Jul-25 12:30N 60°18' E 025°34'0 0.0
2017-Jul-25 12:00N 60°18' E 025°34'0 0.0
2017-Jul-25 11:30N 60°18' E 025°34'1 2.6
2017-Jul-25 11:00N 60°17' E 025°33'612.5
2017-Jul-25 10:30N 60°11' E 025°27'611.5
2017-Jul-25 10:00N 60°09' E 025°17'510.9
2017-Jul-25 09:31N 60°08' E 025°06'510.7
2017-Jul-25 09:00N 60°09' E 024°55'1 1.6
2017-Jul-25 08:30N 60°10' E 024°55'0 0.0
2017-Jul-25 08:00N 60°10' E 024°55'0 0.0
2017-Jul-25 07:30N 60°10' E 024°55'0 0.0
2017-Jul-25 07:00N 60°10' E 024°55'0 0.0
2017-Jul-25 06:30N 60°10' E 024°55'0 0.0
2017-Jul-25 06:00N 60°10' E 024°55'0 0.0
2017-Jul-25 05:30N 60°10' E 024°55'0 0.0
2017-Jul-25 04:59N 60°10' E 024°55'0 0.0
2017-Jul-25 04:29N 60°10' E 024°55'0 0.0
2017-Jul-25 03:59N 60°10' E 024°55'0 0.0
2017-Jul-25 03:29N 60°10' E 024°55'0 0.0
2017-Jul-25 02:59N 60°10' E 024°55'0 0.0
2017-Jul-25 02:29N 60°10' E 024°55'0 0.0
2017-Jul-25 01:59N 60°10' E 024°55'0 0.0
2017-Jul-25 01:29N 60°10' E 024°55'0 0.0
2017-Jul-25 00:59N 60°10' E 024°55'0 0.0
2017-Jul-25 00:29N 60°10' E 024°55'0 0.0
2017-Jul-24 23:59N 60°10' E 024°55'0 0.0
2017-Jul-24 23:29N 60°10' E 024°55'0 0.0
2017-Jul-24 22:59N 60°10' E 024°55'0 0.0
2017-Jul-24 22:29N 60°10' E 024°55'0 0.0
2017-Jul-24 21:59N 60°10' E 024°55'0 0.0
2017-Jul-24 21:29N 60°10' E 024°55'0 0.0
2017-Jul-24 20:59N 60°10' E 024°55'0 0.0
2017-Jul-24 20:30N 60°10' E 024°55'0 0.0
2017-Jul-24 19:59N 60°10' E 024°55'0 0.0
2017-Jul-24 19:30N 60°10' E 024°55'0 0.0
2017-Jul-24 18:59N 60°10' E 024°55'0 0.0
2017-Jul-24 18:29N 60°10' E 024°55'0 0.0
2017-Jul-24 17:59N 60°10' E 024°55'0 0.0
2017-Jul-24 17:29N 60°10' E 024°55'0 0.0
2017-Jul-24 16:59N 60°10' E 024°55'0 0.0
2017-Jul-24 16:29N 60°10' E 024°55'0 0.0
2017-Jul-24 15:59N 60°10' E 024°55'0 0.0
2017-Jul-24 12:59N 60°10' E 024°55'0 0.0
2017-Jul-24 12:29N 60°10' E 024°55'0 0.0
2017-Jul-24 11:59N 60°10' E 024°55'0 0.0
2017-Jul-24 11:30N 60°10' E 024°55'0 0.0
2017-Jul-24 11:00N 60°10' E 024°55'0 0.0
2017-Jul-24 10:28N 60°10' E 024°55'0 0.0
2017-Jul-24 09:57N 60°10' E 024°55'0 0.0
2017-Jul-24 09:30N 60°10' E 024°55'0 0.0
2017-Jul-24 08:59N 60°10' E 024°55'0 0.0
2017-Jul-24 08:28N 60°10' E 024°55'0 0.0
2017-Jul-24 08:01N 60°10' E 024°55'0 0.0
2017-Jul-24 07:30N 60°10' E 024°55'0 0.0
2017-Jul-24 06:58N 60°10' E 024°55'0 0.0
2017-Jul-24 06:29N 60°10' E 024°55'0 0.0
2017-Jul-24 05:58N 60°10' E 024°55'0 0.0
2017-Jul-24 05:30N 60°10' E 024°55'0 0.0
2017-Jul-24 04:58N 60°10' E 024°55'0 0.0
2017-Jul-24 04:29N 60°10' E 024°55'0 0.0
2017-Jul-24 03:59N 60°10' E 024°55'0 0.0
2017-Jul-24 03:30N 60°10' E 024°55'0 0.0
2017-Jul-24 03:00N 60°10' E 024°55'0 0.0
2017-Jul-24 02:28N 60°10' E 024°55'0 0.0
2017-Jul-24 01:56N 60°10' E 024°55'0 0.0
2017-Jul-24 01:30N 60°10' E 024°55'0 0.0
2017-Jul-24 00:59N 60°10' E 024°55'0 0.0
2017-Jul-24 00:30N 60°10' E 024°55'0 0.0
2017-Jul-23 23:58N 60°10' E 024°55'0 0.0
2017-Jul-23 23:28N 60°10' E 024°55'0 0.0
2017-Jul-23 22:58N 60°10' E 024°55'0 0.0
2017-Jul-23 22:29N 60°10' E 024°55'0 0.0
2017-Jul-23 21:59N 60°10' E 024°55'0 0.0
2017-Jul-23 21:29N 60°10' E 024°55'0 0.0
2017-Jul-23 20:59N 60°10' E 024°55'0 0.0
2017-Jul-23 20:30N 60°10' E 024°55'0 0.0
2017-Jul-23 19:57N 60°10' E 024°55'0 0.0
2017-Jul-23 19:29N 60°10' E 024°55'0 0.0
2017-Jul-23 18:58N 60°10' E 024°55'0 0.0
2017-Jul-23 18:28N 60°10' E 024°55'0 0.0
2017-Jul-23 17:58N 60°10' E 024°55'0 0.0
2017-Jul-23 17:28N 60°10' E 024°55'0 0.0
2017-Jul-23 16:56N 60°10' E 024°55'0 0.0
2017-Jul-23 16:30N 60°10' E 024°55'0 0.0
2017-Jul-23 15:58N 60°10' E 024°55'0 0.0
2017-Jul-23 15:28N 60°10' E 024°55'0 0.0
2017-Jul-23 14:58N 60°10' E 024°55'0 0.0
2017-Jul-23 14:29N 60°10' E 024°55'0 0.0
2017-Jul-23 13:58N 60°10' E 024°55'0 0.0
2017-Jul-23 13:30N 60°10' E 024°55'0 0.0
2017-Jul-23 12:55N 60°10' E 024°55'0 0.0
2017-Jul-23 12:28N 60°10' E 024°55'0 0.0
2017-Jul-23 11:58N 60°10' E 024°55'0 0.0
2017-Jul-23 11:28N 60°10' E 024°55'0 0.0
2017-Jul-23 10:58N 60°10' E 024°55'0 0.0
2017-Jul-23 10:28N 60°10' E 024°55'0 0.0
2017-Jul-23 09:58N 60°10' E 024°55'0 0.0
2017-Jul-23 09:28N 60°10' E 024°55'0 0.0
2017-Jul-23 08:58N 60°10' E 024°55'0 0.0
2017-Jul-23 08:28N 60°10' E 024°55'0 0.0
2017-Jul-23 07:58N 60°10' E 024°55'0 0.0
2017-Jul-23 07:28N 60°10' E 024°55'0 0.0
2017-Jul-23 06:53N 60°10' E 024°55'0 0.0
2017-Jul-23 06:28N 60°10' E 024°55'0 0.0
2017-Jul-23 05:58N 60°10' E 024°55'0 0.0
2017-Jul-23 05:28N 60°10' E 024°55'0 0.0
2017-Jul-23 04:58N 60°10' E 024°55'0 0.0
2017-Jul-23 04:28N 60°10' E 024°55'0 0.0
2017-Jul-23 03:58N 60°10' E 024°55'0 0.0
2017-Jul-23 03:28N 60°10' E 024°55'0 0.0
2017-Jul-23 02:58N 60°10' E 024°55'0 0.0
2017-Jul-23 02:25N 60°10' E 024°55'0 0.0
2017-Jul-23 01:55N 60°10' E 024°55'0 0.0
2017-Jul-23 01:28N 60°10' E 024°55'0 0.0
2017-Jul-23 00:58N 60°10' E 024°55'0 0.0
2017-Jul-23 00:31N 60°10' E 024°55'0 0.0
2017-Jul-22 23:57N 60°10' E 024°55'0 0.0
2017-Jul-22 23:30N 60°10' E 024°55'0 0.0
2017-Jul-22 23:00N 60°10' E 024°55'0 0.0
2017-Jul-22 22:30N 60°10' E 024°55'0 0.0
2017-Jul-22 22:00N 60°10' E 024°55'0 0.0
2017-Jul-22 21:30N 60°10' E 024°55'0 0.0
2017-Jul-22 20:59N 60°10' E 024°55'0 0.0
2017-Jul-22 20:30N 60°10' E 024°55'0 0.0
2017-Jul-22 19:57N 60°10' E 024°55'0 0.0
2017-Jul-22 19:28N 60°10' E 024°55'0 0.0
2017-Jul-22 19:00N 60°10' E 024°55'0 0.0
2017-Jul-22 18:30N 60°10' E 024°55'0 0.0
2017-Jul-22 18:00N 60°10' E 024°55'0 0.0
2017-Jul-22 17:30N 60°10' E 024°55'0 0.0
2017-Jul-22 17:00N 60°10' E 024°55'0 0.0
2017-Jul-22 16:30N 60°10' E 024°55'0 0.0
2017-Jul-22 16:00N 60°10' E 024°55'0 0.0
2017-Jul-22 15:30N 60°10' E 024°55'0 0.0
2017-Jul-22 14:57N 60°10' E 024°55'0 0.0
2017-Jul-22 13:57N 60°10' E 024°55'0 0.0
2017-Jul-22 13:30N 60°10' E 024°55'0 0.0
2017-Jul-22 12:57N 60°10' E 024°55'0 0.0
2017-Jul-22 12:30N 60°10' E 024°55'0 0.0
2017-Jul-22 11:51N 60°10' E 024°55'0 0.0
2017-Jul-22 11:24N 60°10' E 024°55'0 0.0
2017-Jul-22 11:00N 60°10' E 024°55'0 0.0
2017-Jul-22 10:30N 60°10' E 024°55'0 0.0
2017-Jul-22 10:00N 60°10' E 024°55'0 0.0
2017-Jul-22 09:30N 60°10' E 024°55'0 0.0
2017-Jul-22 09:00N 60°10' E 024°55'0 0.0
2017-Jul-22 08:30N 60°10' E 024°55'0 0.0
2017-Jul-22 08:00N 60°10' E 024°55'0 0.0
2017-Jul-22 07:30N 60°10' E 024°55'0 0.0
2017-Jul-22 07:00N 60°10' E 024°55'0 0.0
2017-Jul-22 06:30N 60°10' E 024°55'0 0.0
2017-Jul-22 06:00N 60°10' E 024°55'0 0.0
2017-Jul-22 05:30N 60°10' E 024°55'0 0.0
2017-Jul-22 05:00N 60°10' E 024°55'0 0.0
2017-Jul-22 04:30N 60°10' E 024°55'0 0.0
2017-Jul-22 04:00N 60°10' E 024°55'0 0.0
2017-Jul-22 03:30N 60°10' E 024°55'0 0.0
2017-Jul-22 03:00N 60°10' E 024°55'0 0.0
2017-Jul-22 02:30N 60°10' E 024°55'0 0.0
2017-Jul-22 02:00N 60°10' E 024°55'0 0.0
2017-Jul-22 01:30N 60°10' E 024°55'0 0.0
2017-Jul-22 01:00N 60°10' E 024°55'0 0.0
2017-Jul-22 00:30N 60°10' E 024°55'0 0.0
2017-Jul-22 00:00N 60°10' E 024°55'0 0.0
2017-Jul-21 23:30N 60°10' E 024°55'0 0.0
2017-Jul-21 23:00N 60°10' E 024°55'0 0.0
2017-Jul-21 22:30N 60°10' E 024°55'0 0.0
2017-Jul-21 22:00N 60°10' E 024°55'0 0.0
2017-Jul-21 21:30N 60°10' E 024°55'0 0.0
2017-Jul-21 21:00N 60°10' E 024°55'0 0.0
2017-Jul-21 20:30N 60°10' E 024°55'0 0.0
2017-Jul-21 20:00N 60°10' E 024°55'0 0.0
2017-Jul-21 19:30N 60°10' E 024°55'0 0.0
2017-Jul-21 19:00N 60°10' E 024°55'0 0.0
2017-Jul-21 18:30N 60°10' E 024°55'0 0.0
2017-Jul-21 18:00N 60°10' E 024°55'0 0.0
2017-Jul-21 17:30N 60°10' E 024°55'0 0.0
2017-Jul-21 17:00N 60°10' E 024°55'0 0.0
2017-Jul-21 16:30N 60°10' E 024°55'0 0.0
2017-Jul-21 16:00N 60°10' E 024°55'0 0.0
2017-Jul-21 15:30N 60°10' E 024°55'0 0.0
2017-Jul-21 15:00N 60°10' E 024°55'0 0.0
2017-Jul-21 14:30N 60°10' E 024°55'0 0.0
2017-Jul-21 14:00N 60°10' E 024°55'0 0.0
2017-Jul-21 13:30N 60°10' E 024°55'0 0.0
2017-Jul-21 13:00N 60°10' E 024°55'0 0.0
2017-Jul-21 12:30N 60°10' E 024°55'0 0.0
2017-Jul-21 11:59N 60°10' E 024°55'0 0.0
2017-Jul-21 11:29N 60°10' E 024°55'0 0.0
2017-Jul-21 10:59N 60°10' E 024°55'0 0.0
2017-Jul-21 10:29N 60°10' E 024°55'0 0.0
2017-Jul-21 09:59N 60°10' E 024°55'0 0.0
2017-Jul-21 09:29N 60°10' E 024°55'0 0.0
2017-Jul-21 08:59N 60°10' E 024°55'0 0.0
2017-Jul-21 08:29N 60°10' E 024°55'0 0.0
2017-Jul-21 07:59N 60°10' E 024°55'0 0.0
2017-Jul-21 07:29N 60°10' E 024°55'0 0.0
2017-Jul-21 06:59N 60°10' E 024°55'0 0.0
2017-Jul-21 06:29N 60°10' E 024°55'0 0.0
2017-Jul-21 05:59N 60°10' E 024°55'0 0.0
2017-Jul-21 05:29N 60°10' E 024°55'0 0.0
2017-Jul-21 04:59N 60°10' E 024°55'0 0.0
2017-Jul-21 04:29N 60°10' E 024°55'0 0.0
2017-Jul-21 03:59N 60°10' E 024°55'0 0.0
2017-Jul-21 03:29N 60°10' E 024°55'0 0.0
2017-Jul-21 02:59N 60°10' E 024°55'0 0.0
2017-Jul-21 02:26N 60°10' E 024°55'0 0.0
2017-Jul-21 01:59N 60°10' E 024°55'0 0.0
2017-Jul-21 01:29N 60°10' E 024°55'0 0.0
2017-Jul-21 00:59N 60°10' E 024°55'0 0.0
2017-Jul-21 00:29N 60°10' E 024°55'0 0.0
2017-Jul-20 23:59N 60°10' E 024°55'0 0.0
2017-Jul-20 23:29N 60°10' E 024°55'0 0.0
2017-Jul-20 22:59N 60°10' E 024°55'0 0.0
2017-Jul-20 22:23N 60°10' E 024°55'0 0.0
2017-Jul-20 21:59N 60°10' E 024°55'0 0.0
2017-Jul-20 21:29N 60°10' E 024°55'0 0.0
2017-Jul-20 21:00N 60°10' E 024°55'0 0.0
2017-Jul-20 20:23N 60°10' E 024°55'0 0.0
2017-Jul-20 19:59N 60°10' E 024°55'0 0.0
2017-Jul-20 19:26N 60°10' E 024°55'0 0.0
2017-Jul-20 18:59N 60°10' E 024°55'0 0.0
2017-Jul-20 18:29N 60°10' E 024°55'0 0.0
2017-Jul-20 17:59N 60°10' E 024°55'0 0.0
2017-Jul-20 17:29N 60°10' E 024°55'0 0.0
2017-Jul-20 16:59N 60°10' E 024°55'0 0.0
2017-Jul-20 16:30N 60°10' E 024°55'0 0.0
2017-Jul-20 15:59N 60°10' E 024°55'0 0.0
2017-Jul-20 15:29N 60°10' E 024°55'0 0.0
2017-Jul-20 14:59N 60°10' E 024°55'0 0.0
2017-Jul-20 13:59N 60°10' E 024°55'0 0.0
2017-Jul-20 13:29N 60°10' E 024°55'0 0.0
2017-Jul-20 12:59N 60°10' E 024°55'0 0.0
2017-Jul-20 12:29N 60°10' E 024°55'0 0.0
2017-Jul-20 11:59N 60°10' E 024°55'0 0.0
2017-Jul-20 11:29N 60°10' E 024°55'0 0.0
2017-Jul-20 10:59N 60°10' E 024°55'0 0.0
2017-Jul-20 10:29N 60°10' E 024°55'0 0.0
2017-Jul-20 09:59N 60°10' E 024°55'0 0.0
2017-Jul-20 09:26N 60°10' E 024°55'0 0.0
2017-Jul-20 08:59N 60°10' E 024°55'0 0.0
2017-Jul-20 08:29N 60°10' E 024°55'0 0.0
2017-Jul-20 07:59N 60°10' E 024°55'0 0.0
2017-Jul-20 07:29N 60°10' E 024°55'0 0.0
2017-Jul-20 06:59N 60°10' E 024°55'0 0.0
2017-Jul-20 06:29N 60°10' E 024°55'0 0.0
2017-Jul-20 05:59N 60°10' E 024°55'0 0.0
2017-Jul-20 05:29N 60°10' E 024°55'0 0.0
2017-Jul-20 04:59N 60°10' E 024°55'0 0.0
2017-Jul-20 04:29N 60°10' E 024°55'0 0.0
2017-Jul-20 03:59N 60°10' E 024°55'0 0.0
2017-Jul-20 03:29N 60°10' E 024°55'0 0.0
2017-Jul-20 02:59N 60°10' E 024°55'0 0.0
2017-Jul-20 02:29N 60°10' E 024°55'0 0.0
2017-Jul-20 01:59N 60°10' E 024°55'0 0.0
2017-Jul-20 01:29N 60°10' E 024°55'0 0.0
2017-Jul-20 00:59N 60°10' E 024°55'0 0.0
2017-Jul-20 00:29N 60°10' E 024°55'0 0.0
2017-Jul-19 23:59N 60°10' E 024°55'0 0.0
2017-Jul-19 23:28N 60°10' E 024°55'0 0.0
2017-Jul-19 22:58N 60°10' E 024°55'0 0.0
2017-Jul-19 22:28N 60°10' E 024°55'0 0.0
2017-Jul-19 21:58N 60°10' E 024°55'0 0.0
2017-Jul-19 21:28N 60°10' E 024°55'0 0.0
2017-Jul-19 20:58N 60°10' E 024°55'0 0.0
2017-Jul-19 20:29N 60°10' E 024°55'0 0.0
2017-Jul-19 19:59N 60°10' E 024°55'0 0.0
2017-Jul-19 19:28N 60°10' E 024°55'0 0.0
2017-Jul-19 18:58N 60°10' E 024°55'0 0.0
2017-Jul-19 18:28N 60°10' E 024°55'0 0.0
2017-Jul-19 17:58N 60°10' E 024°55'0 0.0
2017-Jul-19 17:28N 60°10' E 024°55'0 0.0
2017-Jul-19 16:58N 60°10' E 024°55'0 0.0
2017-Jul-19 16:28N 60°10' E 024°55'0 0.0
2017-Jul-19 15:58N 60°10' E 024°55'0 0.0
2017-Jul-19 15:28N 60°10' E 024°55'0 0.0
2017-Jul-19 14:58N 60°10' E 024°55'0 0.0
2017-Jul-19 14:28N 60°10' E 024°55'0 0.0
2017-Jul-19 13:49N 60°10' E 024°55'0 0.0
2017-Jul-19 13:23N 60°10' E 024°55'0 0.0
2017-Jul-19 12:58N 60°10' E 024°55'0 0.0
2017-Jul-19 12:22N 60°10' E 024°55'0 0.0
2017-Jul-19 11:58N 60°10' E 024°55'0 0.0
2017-Jul-19 11:28N 60°10' E 024°55'0 0.0
2017-Jul-19 10:58N 60°10' E 024°55'0 0.0
2017-Jul-19 10:28N 60°10' E 024°55'0 0.0
2017-Jul-19 09:58N 60°10' E 024°55'0 0.0
2017-Jul-19 09:28N 60°10' E 024°55'0 0.0
2017-Jul-19 08:58N 60°10' E 024°55'0 0.0
2017-Jul-19 08:28N 60°10' E 024°55'0 0.0
2017-Jul-19 07:58N 60°10' E 024°55'0 0.0
2017-Jul-19 07:28N 60°10' E 024°55'0 0.0
2017-Jul-19 06:58N 60°10' E 024°55'0 0.0
2017-Jul-19 06:28N 60°10' E 024°55'0 0.0
2017-Jul-19 05:58N 60°10' E 024°55'0 0.0
2017-Jul-19 05:28N 60°10' E 024°55'0 0.0
2017-Jul-19 04:58N 60°10' E 024°55'0 0.0
2017-Jul-19 04:28N 60°10' E 024°55'0 0.0
2017-Jul-19 03:58N 60°10' E 024°55'0 0.0
2017-Jul-19 03:28N 60°10' E 024°55'0 0.0
2017-Jul-19 02:58N 60°10' E 024°55'0 0.0
2017-Jul-19 02:28N 60°10' E 024°55'0 0.0
2017-Jul-19 01:58N 60°10' E 024°55'0 0.0
2017-Jul-19 01:28N 60°10' E 024°55'0 0.0
2017-Jul-19 00:58N 60°10' E 024°55'0 0.0
2017-Jul-19 00:28N 60°10' E 024°55'0 0.0
2017-Jul-18 23:58N 60°10' E 024°55'0 0.0
2017-Jul-18 23:28N 60°10' E 024°55'0 0.0
2017-Jul-18 22:58N 60°10' E 024°55'0 0.0
2017-Jul-18 22:28N 60°10' E 024°55'0 0.0
2017-Jul-18 21:58N 60°10' E 024°55'0 0.0
2017-Jul-18 21:28N 60°10' E 024°55'0 0.0
2017-Jul-18 20:58N 60°10' E 024°55'0 0.0
2017-Jul-18 20:30N 60°10' E 024°55'0 0.0
2017-Jul-18 19:55N 60°10' E 024°55'0 0.0
2017-Jul-18 19:30N 60°10' E 024°55'0 0.0
2017-Jul-18 18:58N 60°10' E 024°55'0 0.0
2017-Jul-18 18:28N 60°10' E 024°55'0 0.0
2017-Jul-18 17:58N 60°10' E 024°55'0 0.0
2017-Jul-18 17:28N 60°10' E 024°55'0 0.0
2017-Jul-18 16:58N 60°10' E 024°55'0 0.0
2017-Jul-18 16:25N 60°10' E 024°55'0 0.0
2017-Jul-18 15:58N 60°10' E 024°55'0 0.0
2017-Jul-18 15:28N 60°10' E 024°55'0 0.0
2017-Jul-18 14:58N 60°10' E 024°55'0 0.0
2017-Jul-18 13:58N 60°10' E 024°55'0 0.0
2017-Jul-18 13:28N 60°10' E 024°55'0 0.0
2017-Jul-18 12:58N 60°10' E 024°55'0 0.0
2017-Jul-18 12:31N 60°10' E 024°55'0 0.0
2017-Jul-18 12:01N 60°10' E 024°55'0 0.0
2017-Jul-18 11:30N 60°10' E 024°55'0 0.0
2017-Jul-18 11:00N 60°10' E 024°55'0 0.0
2017-Jul-18 10:30N 60°10' E 024°55'0 0.0
2017-Jul-18 10:00N 60°10' E 024°55'0 0.0
2017-Jul-18 09:30N 60°10' E 024°55'0 0.0
2017-Jul-18 08:57N 60°10' E 024°55'0 0.0
2017-Jul-18 08:30N 60°10' E 024°55'0 0.0
2017-Jul-18 08:00N 60°10' E 024°55'0 0.0
2017-Jul-18 07:30N 60°10' E 024°55'0 0.0
2017-Jul-18 07:00N 60°10' E 024°55'0 0.0
2017-Jul-18 06:30N 60°10' E 024°55'0 0.0
2017-Jul-18 06:00N 60°10' E 024°55'0 0.0
2017-Jul-18 05:30N 60°10' E 024°55'0 0.0
2017-Jul-18 05:00N 60°10' E 024°55'0 0.0
2017-Jul-18 04:30N 60°10' E 024°55'0 0.0
2017-Jul-18 04:00N 60°10' E 024°55'0 0.0
2017-Jul-18 03:30N 60°10' E 024°55'0 0.0
2017-Jul-18 03:00N 60°10' E 024°55'0 0.0
2017-Jul-18 02:30N 60°10' E 024°55'0 0.0
2017-Jul-18 02:00N 60°10' E 024°55'0 0.0
2017-Jul-18 01:30N 60°10' E 024°55'0 0.0
2017-Jul-18 01:00N 60°10' E 024°55'0 0.0
2017-Jul-18 00:30N 60°10' E 024°55'0 0.0
2017-Jul-17 23:57N 60°10' E 024°55'0 0.0
2017-Jul-17 23:30N 60°10' E 024°55'0 0.0
2017-Jul-17 23:00N 60°10' E 024°55'0 0.0
2017-Jul-17 22:30N 60°10' E 024°55'0 0.0
2017-Jul-17 22:00N 60°10' E 024°55'0 0.0
2017-Jul-17 21:30N 60°10' E 024°55'0 0.0
2017-Jul-17 21:00N 60°10' E 024°55'0 0.0
2017-Jul-17 20:29N 60°10' E 024°55'0 0.0
2017-Jul-17 19:58N 60°10' E 024°55'0 0.0
2017-Jul-17 19:30N 60°10' E 024°55'0 0.0
2017-Jul-17 19:00N 60°10' E 024°55'0 0.6
2017-Jul-17 18:30N 60°09' E 024°56'0 0.0
2017-Jul-17 17:59N 60°09' E 024°56'0 0.0
2017-Jul-17 17:29N 60°09' E 024°56'0 0.0
2017-Jul-17 16:53N 60°09' E 024°56'0 0.0
2017-Jul-17 16:29N 60°09' E 024°56'0 0.0
2017-Jul-17 15:59N 60°09' E 024°56'0 0.0
2017-Jul-17 15:29N 60°09' E 024°56'0 0.0
2017-Jul-17 14:59N 60°09' E 024°56'0 0.0
2017-Jul-17 14:29N 60°09' E 024°56'1 1.3
2017-Jul-17 14:00N 60°09' E 024°55'510.8
2017-Jul-17 13:30N 60°05' E 024°47'612.5
2017-Jul-17 13:00N 60°02' E 024°37'612.2
2017-Jul-17 12:30N 59°58' E 024°28'612.5
2017-Jul-17 12:00N 59°56' E 024°16'612.6
2017-Jul-17 11:30N 59°51' E 024°08'612.3
2017-Jul-17 11:00N 59°47' E 023°58'612.6
2017-Jul-17 10:30N 59°45' E 023°47'612.7
2017-Jul-17 10:00N 59°42' E 023°35'612.6
2017-Jul-17 09:30N 59°40' E 023°23'612.7
2017-Jul-17 09:00N 59°39' E 023°11'612.6
2017-Jul-17 08:30N 59°38' E 022°59'612.4
2017-Jul-17 08:00N 59°37' E 022°47'612.5
2017-Jul-17 07:30N 59°35' E 022°35'612.5
2017-Jul-17 07:00N 59°33' E 022°23'612.4
2017-Jul-17 06:30N 59°30' E 022°13'  
Track history (hours):
 
Tides and Currents Weather Stations Pressure Air Temp Water Temp Dewpoint Dewpoint Depression Visibility Wind Speed Wind Dir Waves Ship Positions

Oceanographic research ship Aranda (Finland)

Detailed information on ship capabilities available from University of Delaware's Ocean Information Center and ARCUS's ALIAS (Arctic Logistics Information and Support) project.

Last reported at 2017-Jul-27 06:23 UTC. Time now 2017-Jul-28 06:29 UTC.
Position N 61°08' E 021°27'.

Length 60 m; draft 4.3 m.

Type: Other ship. MMSI: 230145000.

Date/timePositionNaut miles runAvg speedWind from/ knotsBaromVisibWave heightAir tempDewpointWater temp
2017-Jul-27 06:23N 61°08' E 021°27'0 0.0
2017-Jul-27 05:59N 61°08' E 021°27'0 0.0
2017-Jul-27 05:29N 61°08' E 021°27'0 0.0
2017-Jul-27 04:59N 61°08' E 021°27'0 0.0
2017-Jul-27 04:30N 61°08' E 021°27'0 0.4
2017-Jul-27 04:01N 61°07' E 021°27'2 3.0
2017-Jul-27 03:30N 61°07' E 021°25'0 0.0
2017-Jul-27 03:00N 61°06' E 021°25'0 0.0
2017-Jul-27 02:30N 61°06' E 021°25'0 0.0
2017-Jul-27 02:00N 61°06' E 021°25'0 0.0
2017-Jul-27 01:30N 61°06' E 021°25'1 2.7
2017-Jul-27 01:00N 61°06' E 021°22'3 6.6
2017-Jul-27 00:30N 61°06' E 021°15'2 4.7
2017-Jul-27 00:00N 61°06' E 021°10'3 5.9
2017-Jul-26 23:30N 61°03' E 021°08'3 6.0
2017-Jul-26 23:00N 61°00' E 021°10'3 5.8
2017-Jul-26 22:30N 60°57' E 021°09'3 5.9
2017-Jul-26 22:00N 60°54' E 021°09'3 6.3
2017-Jul-26 21:30N 60°51' E 021°07'3 6.0
2017-Jul-26 21:00N 60°48' E 021°07'3 6.2
2017-Jul-26 20:30N 60°46' E 021°11'2 3.1
2017-Jul-26 20:00N 60°47' E 021°13'3 5.7
2017-Jul-26 19:30N 60°47' E 021°19'0 0.0
2017-Jul-26 19:01N 60°47' E 021°19'1 1.1
2017-Jul-26 18:30N 60°47' E 021°18'5 9.8
2017-Jul-26 18:00N 60°44' E 021°10'510.0
2017-Jul-26 17:30N 60°39' E 021°11'5 9.9
2017-Jul-26 17:00N 60°35' E 021°16'5 9.6
2017-Jul-26 16:30N 60°31' E 021°23'5 9.4
2017-Jul-26 16:00N 60°27' E 021°29'611.7
2017-Jul-26 15:30N 60°23' E 021°35'611.2
2017-Jul-26 15:00N 60°18' E 021°43'10 9.8
2017-Jul-26 14:00N 60°19' E 022°03'611.7
2017-Jul-26 13:30N 60°25' E 022°05'2 4.6
2017-Jul-26 13:00N 60°27' E 022°03'1 2.6
2017-Jul-26 12:30N 60°26' E 022°05'611.5
2017-Jul-26 12:00N 60°20' E 022°04'611.3
2017-Jul-26 11:30N 60°16' E 021°57'612.1
2017-Jul-26 11:00N 60°14' E 021°46'510.2
2017-Jul-26 10:30N 60°09' E 021°42'612.0
2017-Jul-26 10:01N 60°03' E 021°41'611.9
2017-Jul-26 09:31N 59°57' E 021°40'612.3
2017-Jul-26 09:00N 59°53' E 021°31'612.1
2017-Jul-26 08:30N 59°49' E 021°22'4 7.7
2017-Jul-26 08:01N 59°46' E 021°22'0 0.1
2017-Jul-26 07:31N 59°46' E 021°22'0 0.0
2017-Jul-26 07:00N 59°46' E 021°22'0 1.0
2017-Jul-26 06:31N 59°46' E 021°21'510.1
2017-Jul-26 06:01N 59°51' E 021°25'612.7
2017-Jul-26 05:30N 59°52' E 021°38'612.4
2017-Jul-26 05:00N 59°52' E 021°50'612.6
2017-Jul-26 04:31N 59°53' E 022°02'612.7
2017-Jul-26 04:00N 59°53' E 022°15'612.3
2017-Jul-26 03:30N 59°53' E 022°27'611.9
2017-Jul-26 03:00N 59°55' E 022°39'612.7
2017-Jul-26 02:30N 59°52' E 022°50'4 8.4
2017-Jul-26 02:00N 59°48' E 022°53'2 3.1
2017-Jul-26 01:30N 59°49' E 022°56'1 1.6
2017-Jul-26 01:00N 59°48' E 022°57'713.0
2017-Jul-26 00:30N 59°48' E 023°10'4 8.8
2017-Jul-26 00:00N 59°50' E 023°18'0 0.0
2017-Jul-25 23:30N 59°50' E 023°18'0 0.0
2017-Jul-25 23:00N 59°50' E 023°18'0 0.1
2017-Jul-25 22:30N 59°50' E 023°18'0 0.1
2017-Jul-25 22:00N 59°50' E 023°18'0 0.0
2017-Jul-25 21:30N 59°50' E 023°18'3 6.6
2017-Jul-25 21:00N 59°46' E 023°16'5 9.3
2017-Jul-25 20:30N 59°42' E 023°20'713.1
2017-Jul-25 20:00N 59°43' E 023°32'612.5
2017-Jul-25 19:30N 59°45' E 023°44'612.4
2017-Jul-25 19:00N 59°49' E 023°54'2 3.4
2017-Jul-25 18:31N 59°50' E 023°57'2 4.7
2017-Jul-25 18:00N 59°50' E 024°01'1 2.8
2017-Jul-25 17:30N 59°50' E 024°04'2 4.4
2017-Jul-25 17:00N 59°50' E 024°09'612.7
2017-Jul-25 16:30N 59°51' E 024°21'612.5
2017-Jul-25 16:00N 59°52' E 024°33'612.5
2017-Jul-25 15:30N 59°54' E 024°45'612.6
2017-Jul-25 15:00N 59°56' E 024°57'1212.1
2017-Jul-25 14:00N 60°03' E 025°16'612.2
2017-Jul-25 13:30N 60°08' E 025°22'611.8
2017-Jul-25 13:00N 60°13' E 025°29'510.5
2017-Jul-25 12:30N 60°18' E 025°34'0 0.0
2017-Jul-25 12:00N 60°18' E 025°34'0 0.0
2017-Jul-25 11:30N 60°18' E 025°34'1 2.6
2017-Jul-25 11:00N 60°17' E 025°33'612.5
2017-Jul-25 10:30N 60°11' E 025°27'611.5
2017-Jul-25 10:00N 60°09' E 025°17'510.9
2017-Jul-25 09:31N 60°08' E 025°06'510.7
2017-Jul-25 09:00N 60°09' E 024°55'1 1.6
2017-Jul-25 08:30N 60°10' E 024°55'0 0.0
2017-Jul-25 08:00N 60°10' E 024°55'0 0.0
2017-Jul-25 07:30N 60°10' E 024°55'0 0.0
2017-Jul-25 07:00N 60°10' E 024°55'0 0.0
2017-Jul-25 06:30N 60°10' E 024°55'0 0.0
2017-Jul-25 06:00N 60°10' E 024°55'0 0.0
2017-Jul-25 05:30N 60°10' E 024°55'0 0.0
2017-Jul-25 04:59N 60°10' E 024°55'0 0.0
2017-Jul-25 04:29N 60°10' E 024°55'0 0.0
2017-Jul-25 03:59N 60°10' E 024°55'0 0.0
2017-Jul-25 03:29N 60°10' E 024°55'0 0.0
2017-Jul-25 02:59N 60°10' E 024°55'0 0.0
2017-Jul-25 02:29N 60°10' E 024°55'0 0.0
2017-Jul-25 01:59N 60°10' E 024°55'0 0.0
2017-Jul-25 01:29N 60°10' E 024°55'0 0.0
2017-Jul-25 00:59N 60°10' E 024°55'0 0.0
2017-Jul-25 00:29N 60°10' E 024°55'0 0.0
2017-Jul-24 23:59N 60°10' E 024°55'0 0.0
2017-Jul-24 23:29N 60°10' E 024°55'0 0.0
2017-Jul-24 22:59N 60°10' E 024°55'0 0.0
2017-Jul-24 22:29N 60°10' E 024°55'0 0.0
2017-Jul-24 21:59N 60°10' E 024°55'0 0.0
2017-Jul-24 21:29N 60°10' E 024°55'0 0.0
2017-Jul-24 20:59N 60°10' E 024°55'0 0.0
2017-Jul-24 20:30N 60°10' E 024°55'0 0.0
2017-Jul-24 19:59N 60°10' E 024°55'0 0.0
2017-Jul-24 19:30N 60°10' E 024°55'0 0.0
2017-Jul-24 18:59N 60°10' E 024°55'0 0.0
2017-Jul-24 18:29N 60°10' E 024°55'0 0.0
2017-Jul-24 17:59N 60°10' E 024°55'0 0.0
2017-Jul-24 17:29N 60°10' E 024°55'0 0.0
2017-Jul-24 16:59N 60°10' E 024°55'0 0.0
2017-Jul-24 16:29N 60°10' E 024°55'0 0.0
2017-Jul-24 15:59N 60°10' E 024°55'0 0.0
2017-Jul-24 12:59N 60°10' E 024°55'0 0.0
2017-Jul-24 12:29N 60°10' E 024°55'0 0.0
2017-Jul-24 11:59N 60°10' E 024°55'0 0.0
2017-Jul-24 11:30N 60°10' E 024°55'0 0.0
2017-Jul-24 11:00N 60°10' E 024°55'0 0.0
2017-Jul-24 10:28N 60°10' E 024°55'0 0.0
2017-Jul-24 09:57N 60°10' E 024°55'0 0.0
2017-Jul-24 09:30N 60°10' E 024°55'0 0.0
2017-Jul-24 08:59N 60°10' E 024°55'0 0.0
2017-Jul-24 08:28N 60°10' E 024°55'0 0.0
2017-Jul-24 08:01N 60°10' E 024°55'0 0.0
2017-Jul-24 07:30N 60°10' E 024°55'0 0.0
2017-Jul-24 06:58N 60°10' E 024°55'0 0.0
2017-Jul-24 06:29N 60°10' E 024°55'0 0.0
2017-Jul-24 05:58N 60°10' E 024°55'0 0.0
2017-Jul-24 05:30N 60°10' E 024°55'0 0.0
2017-Jul-24 04:58N 60°10' E 024°55'0 0.0
2017-Jul-24 04:29N 60°10' E 024°55'0 0.0
2017-Jul-24 03:59N 60°10' E 024°55'0 0.0
2017-Jul-24 03:30N 60°10' E 024°55'0 0.0
2017-Jul-24 03:00N 60°10' E 024°55'0 0.0
2017-Jul-24 02:28N 60°10' E 024°55'0 0.0
2017-Jul-24 01:56N 60°10' E 024°55'0 0.0
2017-Jul-24 01:30N 60°10' E 024°55'0 0.0
2017-Jul-24 00:59N 60°10' E 024°55'0 0.0
2017-Jul-24 00:30N 60°10' E 024°55'0 0.0
2017-Jul-23 23:58N 60°10' E 024°55'0 0.0
2017-Jul-23 23:28N 60°10' E 024°55'0 0.0
2017-Jul-23 22:58N 60°10' E 024°55'0 0.0
2017-Jul-23 22:29N 60°10' E 024°55'0 0.0
2017-Jul-23 21:59N 60°10' E 024°55'0 0.0
2017-Jul-23 21:29N 60°10' E 024°55'0 0.0
2017-Jul-23 20:59N 60°10' E 024°55'0 0.0
2017-Jul-23 20:30N 60°10' E 024°55'0 0.0
2017-Jul-23 19:57N 60°10' E 024°55'0 0.0
2017-Jul-23 19:29N 60°10' E 024°55'0 0.0
2017-Jul-23 18:58N 60°10' E 024°55'0 0.0
2017-Jul-23 18:28N 60°10' E 024°55'0 0.0
2017-Jul-23 17:58N 60°10' E 024°55'0 0.0
2017-Jul-23 17:28N 60°10' E 024°55'0 0.0
2017-Jul-23 16:56N 60°10' E 024°55'0 0.0
2017-Jul-23 16:30N 60°10' E 024°55'0 0.0
2017-Jul-23 15:58N 60°10' E 024°55'0 0.0
2017-Jul-23 15:28N 60°10' E 024°55'0 0.0
2017-Jul-23 14:58N 60°10' E 024°55'0 0.0
2017-Jul-23 14:29N 60°10' E 024°55'0 0.0
2017-Jul-23 13:58N 60°10' E 024°55'0 0.0
2017-Jul-23 13:30N 60°10' E 024°55'0 0.0
2017-Jul-23 12:55N 60°10' E 024°55'0 0.0
2017-Jul-23 12:28N 60°10' E 024°55'0 0.0
2017-Jul-23 11:58N 60°10' E 024°55'0 0.0
2017-Jul-23 11:28N 60°10' E 024°55'0 0.0
2017-Jul-23 10:58N 60°10' E 024°55'0 0.0
2017-Jul-23 10:28N 60°10' E 024°55'0 0.0
2017-Jul-23 09:58N 60°10' E 024°55'0 0.0
2017-Jul-23 09:28N 60°10' E 024°55'0 0.0
2017-Jul-23 08:58N 60°10' E 024°55'0 0.0
2017-Jul-23 08:28N 60°10' E 024°55'0 0.0
2017-Jul-23 07:58N 60°10' E 024°55'0 0.0
2017-Jul-23 07:28N 60°10' E 024°55'0 0.0
2017-Jul-23 06:53N 60°10' E 024°55'0 0.0
2017-Jul-23 06:28N 60°10' E 024°55'0 0.0
2017-Jul-23 05:58N 60°10' E 024°55'0 0.0
2017-Jul-23 05:28N 60°10' E 024°55'0 0.0
2017-Jul-23 04:58N 60°10' E 024°55'0 0.0
2017-Jul-23 04:28N 60°10' E 024°55'0 0.0
2017-Jul-23 03:58N 60°10' E 024°55'0 0.0
2017-Jul-23 03:28N 60°10' E 024°55'0 0.0
2017-Jul-23 02:58N 60°10' E 024°55'0 0.0
2017-Jul-23 02:25N 60°10' E 024°55'0 0.0
2017-Jul-23 01:55N 60°10' E 024°55'0 0.0
2017-Jul-23 01:28N 60°10' E 024°55'0 0.0
2017-Jul-23 00:58N 60°10' E 024°55'0 0.0
2017-Jul-23 00:31N 60°10' E 024°55'0 0.0
2017-Jul-22 23:57N 60°10' E 024°55'0 0.0
2017-Jul-22 23:30N 60°10' E 024°55'0 0.0
2017-Jul-22 23:00N 60°10' E 024°55'0 0.0
2017-Jul-22 22:30N 60°10' E 024°55'0 0.0
2017-Jul-22 22:00N 60°10' E 024°55'0 0.0
2017-Jul-22 21:30N 60°10' E 024°55'0 0.0
2017-Jul-22 20:59N 60°10' E 024°55'0 0.0
2017-Jul-22 20:30N 60°10' E 024°55'0 0.0
2017-Jul-22 19:57N 60°10' E 024°55'0 0.0
2017-Jul-22 19:28N 60°10' E 024°55'0 0.0
2017-Jul-22 19:00N 60°10' E 024°55'0 0.0
2017-Jul-22 18:30N 60°10' E 024°55'0 0.0
2017-Jul-22 18:00N 60°10' E 024°55'0 0.0
2017-Jul-22 17:30N 60°10' E 024°55'0 0.0
2017-Jul-22 17:00N 60°10' E 024°55'0 0.0
2017-Jul-22 16:30N 60°10' E 024°55'0 0.0
2017-Jul-22 16:00N 60°10' E 024°55'0 0.0
2017-Jul-22 15:30N 60°10' E 024°55'0 0.0
2017-Jul-22 14:57N 60°10' E 024°55'0 0.0
2017-Jul-22 13:57N 60°10' E 024°55'0 0.0
2017-Jul-22 13:30N 60°10' E 024°55'0 0.0
2017-Jul-22 12:57N 60°10' E 024°55'0 0.0
2017-Jul-22 12:30N 60°10' E 024°55'0 0.0
2017-Jul-22 11:51N 60°10' E 024°55'0 0.0
2017-Jul-22 11:24N 60°10' E 024°55'0 0.0
2017-Jul-22 11:00N 60°10' E 024°55'0 0.0
2017-Jul-22 10:30N 60°10' E 024°55'0 0.0
2017-Jul-22 10:00N 60°10' E 024°55'0 0.0
2017-Jul-22 09:30N 60°10' E 024°55'0 0.0
2017-Jul-22 09:00N 60°10' E 024°55'0 0.0
2017-Jul-22 08:30N 60°10' E 024°55'0 0.0
2017-Jul-22 08:00N 60°10' E 024°55'0 0.0
2017-Jul-22 07:30N 60°10' E 024°55'0 0.0
2017-Jul-22 07:00N 60°10' E 024°55'0 0.0
2017-Jul-22 06:30N 60°10' E 024°55'0 0.0
2017-Jul-22 06:00N 60°10' E 024°55'0 0.0
2017-Jul-22 05:30N 60°10' E 024°55'0 0.0
2017-Jul-22 05:00N 60°10' E 024°55'0 0.0
2017-Jul-22 04:30N 60°10' E 024°55'0 0.0
2017-Jul-22 04:00N 60°10' E 024°55'0 0.0
2017-Jul-22 03:30N 60°10' E 024°55'0 0.0
2017-Jul-22 03:00N 60°10' E 024°55'0 0.0
2017-Jul-22 02:30N 60°10' E 024°55'0 0.0
2017-Jul-22 02:00N 60°10' E 024°55'0 0.0
2017-Jul-22 01:30N 60°10' E 024°55'0 0.0
2017-Jul-22 01:00N 60°10' E 024°55'0 0.0
2017-Jul-22 00:30N 60°10' E 024°55'0 0.0
2017-Jul-22 00:00N 60°10' E 024°55'0 0.0
2017-Jul-21 23:30N 60°10' E 024°55'0 0.0
2017-Jul-21 23:00N 60°10' E 024°55'0 0.0
2017-Jul-21 22:30N 60°10' E 024°55'0 0.0
2017-Jul-21 22:00N 60°10' E 024°55'0 0.0
2017-Jul-21 21:30N 60°10' E 024°55'0 0.0
2017-Jul-21 21:00N 60°10' E 024°55'0 0.0
2017-Jul-21 20:30N 60°10' E 024°55'0 0.0
2017-Jul-21 20:00N 60°10' E 024°55'0 0.0
2017-Jul-21 19:30N 60°10' E 024°55'0 0.0
2017-Jul-21 19:00N 60°10' E 024°55'0 0.0
2017-Jul-21 18:30N 60°10' E 024°55'0 0.0
2017-Jul-21 18:00N 60°10' E 024°55'0 0.0
2017-Jul-21 17:30N 60°10' E 024°55'0 0.0
2017-Jul-21 17:00N 60°10' E 024°55'0 0.0
2017-Jul-21 16:30N 60°10' E 024°55'0 0.0
2017-Jul-21 16:00N 60°10' E 024°55'0 0.0
2017-Jul-21 15:30N 60°10' E 024°55'0 0.0
2017-Jul-21 15:00N 60°10' E 024°55'0 0.0
2017-Jul-21 14:30N 60°10' E 024°55'0 0.0
2017-Jul-21 14:00N 60°10' E 024°55'0 0.0
2017-Jul-21 13:30N 60°10' E 024°55'0 0.0
2017-Jul-21 13:00N 60°10' E 024°55'0 0.0
2017-Jul-21 12:30N 60°10' E 024°55'0 0.0
2017-Jul-21 11:59N 60°10' E 024°55'0 0.0
2017-Jul-21 11:29N 60°10' E 024°55'0 0.0
2017-Jul-21 10:59N 60°10' E 024°55'0 0.0
2017-Jul-21 10:29N 60°10' E 024°55'0 0.0
2017-Jul-21 09:59N 60°10' E 024°55'0 0.0
2017-Jul-21 09:29N 60°10' E 024°55'0 0.0
2017-Jul-21 08:59N 60°10' E 024°55'0 0.0
2017-Jul-21 08:29N 60°10' E 024°55'0 0.0
2017-Jul-21 07:59N 60°10' E 024°55'0 0.0
2017-Jul-21 07:29N 60°10' E 024°55'0 0.0
2017-Jul-21 06:59N 60°10' E 024°55'0 0.0
2017-Jul-21 06:29N 60°10' E 024°55'0 0.0
2017-Jul-21 05:59N 60°10' E 024°55'0 0.0
2017-Jul-21 05:29N 60°10' E 024°55'0 0.0
2017-Jul-21 04:59N 60°10' E 024°55'0 0.0
2017-Jul-21 04:29N 60°10' E 024°55'0 0.0
2017-Jul-21 03:59N 60°10' E 024°55'0 0.0
2017-Jul-21 03:29N 60°10' E 024°55'0 0.0
2017-Jul-21 02:59N 60°10' E 024°55'0 0.0
2017-Jul-21 02:26N 60°10' E 024°55'0 0.0
2017-Jul-21 01:59N 60°10' E 024°55'0 0.0
2017-Jul-21 01:29N 60°10' E 024°55'0 0.0
2017-Jul-21 00:59N 60°10' E 024°55'0 0.0
2017-Jul-21 00:29N 60°10' E 024°55'0 0.0
2017-Jul-20 23:59N 60°10' E 024°55'0 0.0
2017-Jul-20 23:29N 60°10' E 024°55'0 0.0
2017-Jul-20 22:59N 60°10' E 024°55'0 0.0
2017-Jul-20 22:23N 60°10' E 024°55'0 0.0
2017-Jul-20 21:59N 60°10' E 024°55'0 0.0
2017-Jul-20 21:29N 60°10' E 024°55'0 0.0
2017-Jul-20 21:00N 60°10' E 024°55'0 0.0
2017-Jul-20 20:23N 60°10' E 024°55'0 0.0
2017-Jul-20 19:59N 60°10' E 024°55'0 0.0
2017-Jul-20 19:26N 60°10' E 024°55'0 0.0
2017-Jul-20 18:59N 60°10' E 024°55'0 0.0
2017-Jul-20 18:29N 60°10' E 024°55'0 0.0
2017-Jul-20 17:59N 60°10' E 024°55'0 0.0
2017-Jul-20 17:29N 60°10' E 024°55'0 0.0
2017-Jul-20 16:59N 60°10' E 024°55'0 0.0
2017-Jul-20 16:30N 60°10' E 024°55'0 0.0
2017-Jul-20 15:59N 60°10' E 024°55'0 0.0
2017-Jul-20 15:29N 60°10' E 024°55'0 0.0
2017-Jul-20 14:59N 60°10' E 024°55'0 0.0
2017-Jul-20 13:59N 60°10' E 024°55'0 0.0
2017-Jul-20 13:29N 60°10' E 024°55'0 0.0
2017-Jul-20 12:59N 60°10' E 024°55'0 0.0
2017-Jul-20 12:29N 60°10' E 024°55'0 0.0
2017-Jul-20 11:59N 60°10' E 024°55'0 0.0
2017-Jul-20 11:29N 60°10' E 024°55'0 0.0
2017-Jul-20 10:59N 60°10' E 024°55'0 0.0
2017-Jul-20 10:29N 60°10' E 024°55'0 0.0
2017-Jul-20 09:59N 60°10' E 024°55'0 0.0
2017-Jul-20 09:26N 60°10' E 024°55'0 0.0
2017-Jul-20 08:59N 60°10' E 024°55'0 0.0
2017-Jul-20 08:29N 60°10' E 024°55'0 0.0
2017-Jul-20 07:59N 60°10' E 024°55'0 0.0
2017-Jul-20 07:29N 60°10' E 024°55'0 0.0
2017-Jul-20 06:59N 60°10' E 024°55'0 0.0
2017-Jul-20 06:29N 60°10' E 024°55'0 0.0
2017-Jul-20 05:59N 60°10' E 024°55'0 0.0
2017-Jul-20 05:29N 60°10' E 024°55'0 0.0
2017-Jul-20 04:59N 60°10' E 024°55'0 0.0
2017-Jul-20 04:29N 60°10' E 024°55'0 0.0
2017-Jul-20 03:59N 60°10' E 024°55'0 0.0
2017-Jul-20 03:29N 60°10' E 024°55'0 0.0
2017-Jul-20 02:59N 60°10' E 024°55'0 0.0
2017-Jul-20 02:29N 60°10' E 024°55'0 0.0
2017-Jul-20 01:59N 60°10' E 024°55'0 0.0
2017-Jul-20 01:29N 60°10' E 024°55'0 0.0
2017-Jul-20 00:59N 60°10' E 024°55'0 0.0
2017-Jul-20 00:29N 60°10' E 024°55'0 0.0
2017-Jul-19 23:59N 60°10' E 024°55'0 0.0
2017-Jul-19 23:28N 60°10' E 024°55'0 0.0
2017-Jul-19 22:58N 60°10' E 024°55'0 0.0
2017-Jul-19 22:28N 60°10' E 024°55'0 0.0
2017-Jul-19 21:58N 60°10' E 024°55'0 0.0
2017-Jul-19 21:28N 60°10' E 024°55'0 0.0
2017-Jul-19 20:58N 60°10' E 024°55'0 0.0
2017-Jul-19 20:29N 60°10' E 024°55'0 0.0
2017-Jul-19 19:59N 60°10' E 024°55'0 0.0
2017-Jul-19 19:28N 60°10' E 024°55'0 0.0
2017-Jul-19 18:58N 60°10' E 024°55'0 0.0
2017-Jul-19 18:28N 60°10' E 024°55'0 0.0
2017-Jul-19 17:58N 60°10' E 024°55'0 0.0
2017-Jul-19 17:28N 60°10' E 024°55'0 0.0
2017-Jul-19 16:58N 60°10' E 024°55'0 0.0
2017-Jul-19 16:28N 60°10' E 024°55'0 0.0
2017-Jul-19 15:58N 60°10' E 024°55'0 0.0
2017-Jul-19 15:28N 60°10' E 024°55'0 0.0
2017-Jul-19 14:58N 60°10' E 024°55'0 0.0
2017-Jul-19 14:28N 60°10' E 024°55'0 0.0
2017-Jul-19 13:49N 60°10' E 024°55'0 0.0
2017-Jul-19 13:23N 60°10' E 024°55'0 0.0
2017-Jul-19 12:58N 60°10' E 024°55'0 0.0
2017-Jul-19 12:22N 60°10' E 024°55'0 0.0
2017-Jul-19 11:58N 60°10' E 024°55'0 0.0
2017-Jul-19 11:28N 60°10' E 024°55'0 0.0
2017-Jul-19 10:58N 60°10' E 024°55'0 0.0
2017-Jul-19 10:28N 60°10' E 024°55'0 0.0
2017-Jul-19 09:58N 60°10' E 024°55'0 0.0
2017-Jul-19 09:28N 60°10' E 024°55'0 0.0
2017-Jul-19 08:58N 60°10' E 024°55'0 0.0
2017-Jul-19 08:28N 60°10' E 024°55'0 0.0
2017-Jul-19 07:58N 60°10' E 024°55'0 0.0
2017-Jul-19 07:28N 60°10' E 024°55'0 0.0
2017-Jul-19 06:58N 60°10' E 024°55'0 0.0
2017-Jul-19 06:28N 60°10' E 024°55'0 0.0
2017-Jul-19 05:58N 60°10' E 024°55'0 0.0
2017-Jul-19 05:28N 60°10' E 024°55'0 0.0
2017-Jul-19 04:58N 60°10' E 024°55'0 0.0
2017-Jul-19 04:28N 60°10' E 024°55'0 0.0
2017-Jul-19 03:58N 60°10' E 024°55'0 0.0
2017-Jul-19 03:28N 60°10' E 024°55'0 0.0
2017-Jul-19 02:58N 60°10' E 024°55'0 0.0
2017-Jul-19 02:28N 60°10' E 024°55'0 0.0
2017-Jul-19 01:58N 60°10' E 024°55'0 0.0
2017-Jul-19 01:28N 60°10' E 024°55'0 0.0
2017-Jul-19 00:58N 60°10' E 024°55'0 0.0
2017-Jul-19 00:28N 60°10' E 024°55'0 0.0
2017-Jul-18 23:58N 60°10' E 024°55'0 0.0
2017-Jul-18 23:28N 60°10' E 024°55'0 0.0
2017-Jul-18 22:58N 60°10' E 024°55'0 0.0
2017-Jul-18 22:28N 60°10' E 024°55'0 0.0
2017-Jul-18 21:58N 60°10' E 024°55'0 0.0
2017-Jul-18 21:28N 60°10' E 024°55'0 0.0
2017-Jul-18 20:58N 60°10' E 024°55'0 0.0
2017-Jul-18 20:30N 60°10' E 024°55'0 0.0
2017-Jul-18 19:55N 60°10' E 024°55'0 0.0
2017-Jul-18 19:30N 60°10' E 024°55'0 0.0
2017-Jul-18 18:58N 60°10' E 024°55'0 0.0
2017-Jul-18 18:28N 60°10' E 024°55'0 0.0
2017-Jul-18 17:58N 60°10' E 024°55'0 0.0
2017-Jul-18 17:28N 60°10' E 024°55'0 0.0
2017-Jul-18 16:58N 60°10' E 024°55'0 0.0
2017-Jul-18 16:25N 60°10' E 024°55'0 0.0
2017-Jul-18 15:58N 60°10' E 024°55'0 0.0
2017-Jul-18 15:28N 60°10' E 024°55'0 0.0
2017-Jul-18 14:58N 60°10' E 024°55'0 0.0
2017-Jul-18 13:58N 60°10' E 024°55'0 0.0
2017-Jul-18 13:28N 60°10' E 024°55'0 0.0
2017-Jul-18 12:58N 60°10' E 024°55'0 0.0
2017-Jul-18 12:31N 60°10' E 024°55'0 0.0
2017-Jul-18 12:01N 60°10' E 024°55'0 0.0
2017-Jul-18 11:30N 60°10' E 024°55'0 0.0
2017-Jul-18 11:00N 60°10' E 024°55'0 0.0
2017-Jul-18 10:30N 60°10' E 024°55'0 0.0
2017-Jul-18 10:00N 60°10' E 024°55'0 0.0
2017-Jul-18 09:30N 60°10' E 024°55'0 0.0
2017-Jul-18 08:57N 60°10' E 024°55'0 0.0
2017-Jul-18 08:30N 60°10' E 024°55'0 0.0
2017-Jul-18 08:00N 60°10' E 024°55'0 0.0
2017-Jul-18 07:30N 60°10' E 024°55'0 0.0
2017-Jul-18 07:00N 60°10' E 024°55'0 0.0
2017-Jul-18 06:30N 60°10' E 024°55'0 0.0
2017-Jul-18 06:00N 60°10' E 024°55'0 0.0
2017-Jul-18 05:30N 60°10' E 024°55'0 0.0
2017-Jul-18 05:00N 60°10' E 024°55'0 0.0
2017-Jul-18 04:30N 60°10' E 024°55'0 0.0
2017-Jul-18 04:00N 60°10' E 024°55'0 0.0
2017-Jul-18 03:30N 60°10' E 024°55'0 0.0
2017-Jul-18 03:00N 60°10' E 024°55'0 0.0
2017-Jul-18 02:30N 60°10' E 024°55'0 0.0
2017-Jul-18 02:00N 60°10' E 024°55'0 0.0
2017-Jul-18 01:30N 60°10' E 024°55'0 0.0
2017-Jul-18 01:00N 60°10' E 024°55'0 0.0
2017-Jul-18 00:30N 60°10' E 024°55'0 0.0
2017-Jul-17 23:57N 60°10' E 024°55'0 0.0
2017-Jul-17 23:30N 60°10' E 024°55'0 0.0
2017-Jul-17 23:00N 60°10' E 024°55'0 0.0
2017-Jul-17 22:30N 60°10' E 024°55'0 0.0
2017-Jul-17 22:00N 60°10' E 024°55'0 0.0
2017-Jul-17 21:30N 60°10' E 024°55'0 0.0
2017-Jul-17 21:00N 60°10' E 024°55'0 0.0
2017-Jul-17 20:29N 60°10' E 024°55'0 0.0
2017-Jul-17 19:58N 60°10' E 024°55'0 0.0
2017-Jul-17 19:30N 60°10' E 024°55'0 0.0
2017-Jul-17 19:00N 60°10' E 024°55'0 0.6
2017-Jul-17 18:30N 60°09' E 024°56'0 0.0
2017-Jul-17 17:59N 60°09' E 024°56'0 0.0
2017-Jul-17 17:29N 60°09' E 024°56'0 0.0
2017-Jul-17 16:53N 60°09' E 024°56'0 0.0
2017-Jul-17 16:29N 60°09' E 024°56'0 0.0
2017-Jul-17 15:59N 60°09' E 024°56'0 0.0
2017-Jul-17 15:29N 60°09' E 024°56'0 0.0
2017-Jul-17 14:59N 60°09' E 024°56'0 0.0
2017-Jul-17 14:29N 60°09' E 024°56'1 1.3
2017-Jul-17 14:00N 60°09' E 024°55'510.8
2017-Jul-17 13:30N 60°05' E 024°47'612.5
2017-Jul-17 13:00N 60°02' E 024°37'612.2
2017-Jul-17 12:30N 59°58' E 024°28'612.5
2017-Jul-17 12:00N 59°56' E 024°16'612.6
2017-Jul-17 11:30N 59°51' E 024°08'612.3
2017-Jul-17 11:00N 59°47' E 023°58'612.6
2017-Jul-17 10:30N 59°45' E 023°47'612.7
2017-Jul-17 10:00N 59°42' E 023°35'612.6
2017-Jul-17 09:30N 59°40' E 023°23'612.7
2017-Jul-17 09:00N 59°39' E 023°11'612.6
2017-Jul-17 08:30N 59°38' E 022°59'612.4
2017-Jul-17 08:00N 59°37' E 022°47'612.5
2017-Jul-17 07:30N 59°35' E 022°35'612.5
2017-Jul-17 07:00N 59°33' E 022°23'612.4
2017-Jul-17 06:30N 59°30' E 022°13'  

Dump ship's entire track history